Rockledge, Pennsylvania
Current Conditions -  °F | °C
As of 5:54 PM on Thursday 23 Oct 2014 (Local Time) from KPNE Reporting Station
Overcast Overcast  
Wind Chill: 56°   Ceiling: 3900
Heat Index: 56°   Visibility: 10mi
Dew Point: 42°   Wind: 15mph
Humidity: 60%   Direction: 330°NNW
Pressure: 29.8"   Gusts: NA
Location:  40.1039°N, 75.1072°W
Report Text: KPNE 232154Z 33013KT 10SM FEW032 BKN039 OVC055 13/06 A2980 RMK AO2 SLP091 T01330056 $
Loading
Personal Weather Stations






























Interactive Weather Map
Tropical Storm Tracking
New forecast layout! Learn more

10-Day Weather Forecast

Advertisements
Track Severe Weather on mobile